Et un breveté de plus!!!!

Rédigé par Admin - 06 février 2017


Clément Cadier, notre plus jeune pilote, a réussi brillamment son brevet de Base en janvier 2017.

De gauche à droite : Jean Luc son Instructeur, Michel le testeur et Clément.

«Toutes nos félicitations Clément!!! »

Classé dans : Non classé - Mots clés : aucun

A propos de l'auteur:

Pilote et webmaster de ce site.

Les commentaires sont fermés.

Webcam :

Nuit aéronautique

23 Oct 2018

Heure locale,
pour LFDL uniquement.

Lever du soleil aéronautique :08:00
Lever du soleil :08:30
Coucher du soleil :18:56
Coucher du soleil aéronautique :19:26

Metar

LFBI :
2018/10/23 19:00
LFBI 231900Z AUTO 33004KT CAVOK 10/05 Q1032 NOSIG
LFBI :
Poitiers, France (LFBI) 46-35N 000-19E 120M
Oct 23, 2018 - 03:00 PM EDT / 2018.10.23 1900 UTC
Wind: from the NNW (330 degrees) at 5 MPH (4 KT):0
Visibility: greater than 7 mile(s):0
Temperature: 50 F (10 C)
Dew Point: 41 F (5 C)
Relative Humidity: 71%
Pressure (altimeter): 30.47 in. Hg (1032 hPa)
ob: LFBI 231900Z AUTO 33004KT CAVOK 10/05 Q1032 NOSIG
cycle: 19

Afficher le metar d'une autre station :
Code OACI :

Aéroclub de Loudun


Bellevue
86200 Loudun


Contacter Michel Richez (président)

  • Mail:michel.richez@free.fr
  • Tel:09-50-38-02-06
  • Mobile:06-52-73-09-01



agrandir le plan

Newsletter

Mon e-mail :